sensor_id;sensor_type;location;lat;lon;timestamp;temperature;humidity
63017;DHT22;50274;45.640;11.756;2023-05-07T00:01:54;19.10;64.80
63017;DHT22;50274;45.640;11.756;2023-05-07T00:04:20;19.00;64.80
63017;DHT22;50274;45.640;11.756;2023-05-07T00:06:46;18.90;65.00
63017;DHT22;50274;45.640;11.756;2023-05-07T00:09:12;18.80;65.20
63017;DHT22;50274;45.640;11.756;2023-05-07T00:11:38;18.70;65.30
63017;DHT22;50274;45.640;11.756;2023-05-07T00:14:03;18.70;65.50
63017;DHT22;50274;45.640;11.756;2023-05-07T00:16:30;18.70;65.60
63017;DHT22;50274;45.640;11.756;2023-05-07T00:18:55;18.60;65.80
63017;DHT22;50274;45.640;11.756;2023-05-07T00:21:21;18.60;65.80
63017;DHT22;50274;45.640;11.756;2023-05-07T00:23:47;18.60;65.90
63017;DHT22;50274;45.640;11.756;2023-05-07T00:26:13;18.60;66.00
63017;DHT22;50274;45.640;11.756;2023-05-07T00:28:39;18.60;66.00
63017;DHT22;50274;45.640;11.756;2023-05-07T00:31:05;18.60;66.00
63017;DHT22;50274;45.640;11.756;2023-05-07T00:33:31;18.60;66.10
63017;DHT22;50274;45.640;11.756;2023-05-07T00:35:56;18.60;66.10
63017;DHT22;50274;45.640;11.756;2023-05-07T00:38:22;18.60;66.10
63017;DHT22;50274;45.640;11.756;2023-05-07T00:40:48;18.60;66.20
63017;DHT22;50274;45.640;11.756;2023-05-07T00:43:14;18.60;66.30
63017;DHT22;50274;45.640;11.756;2023-05-07T00:45:40;18.60;66.20
63017;DHT22;50274;45.640;11.756;2023-05-07T00:48:06;18.60;66.30
63017;DHT22;50274;45.640;11.756;2023-05-07T00:50:32;18.60;66.40
63017;DHT22;50274;45.640;11.756;2023-05-07T00:52:58;18.50;66.40
63017;DHT22;50274;45.640;11.756;2023-05-07T00:55:25;18.50;66.40
63017;DHT22;50274;45.640;11.756;2023-05-07T00:57:51;18.50;66.50
63017;DHT22;50274;45.640;11.756;2023-05-07T01:00:18;18.50;66.50
63017;DHT22;50274;45.640;11.756;2023-05-07T01:02:44;18.50;66.60
63017;DHT22;50274;45.640;11.756;2023-05-07T01:05:17;18.50;66.70
63017;DHT22;50274;45.640;11.756;2023-05-07T01:07:43;18.50;66.80
63017;DHT22;50274;45.640;11.756;2023-05-07T01:10:10;18.40;66.90
63017;DHT22;50274;45.640;11.756;2023-05-07T01:12:38;18.40;67.00
63017;DHT22;50274;45.640;11.756;2023-05-07T01:15:05;18.40;67.20
63017;DHT22;50274;45.640;11.756;2023-05-07T01:17:36;18.40;67.20
63017;DHT22;50274;45.640;11.756;2023-05-07T01:20:05;18.30;67.30
63017;DHT22;50274;45.640;11.756;2023-05-07T01:22:35;18.30;67.30
63017;DHT22;50274;45.640;11.756;2023-05-07T01:25:05;18.30;67.40
63017;DHT22;50274;45.640;11.756;2023-05-07T01:27:31;18.40;67.40
63017;DHT22;50274;45.640;11.756;2023-05-07T01:29:59;18.30;67.50
63017;DHT22;50274;45.640;11.756;2023-05-07T01:32:50;18.30;67.50
63017;DHT22;50274;45.640;11.756;2023-05-07T01:35:20;18.30;67.60
63017;DHT22;50274;45.640;11.756;2023-05-07T01:37:48;18.40;67.50
63017;DHT22;50274;45.640;11.756;2023-05-07T01:40:15;18.30;67.50
63017;DHT22;50274;45.640;11.756;2023-05-07T01:42:43;18.30;67.50
63017;DHT22;50274;45.640;11.756;2023-05-07T01:45:09;18.30;67.50
63017;DHT22;50274;45.640;11.756;2023-05-07T01:47:36;18.30;67.50
63017;DHT22;50274;45.640;11.756;2023-05-07T01:50:05;18.30;67.60
63017;DHT22;50274;45.640;11.756;2023-05-07T01:52:31;18.30;67.60
63017;DHT22;50274;45.640;11.756;2023-05-07T01:54:57;18.20;67.70
63017;DHT22;50274;45.640;11.756;2023-05-07T01:57:22;18.30;67.70
63017;DHT22;50274;45.640;11.756;2023-05-07T01:59:48;18.20;67.80
63017;DHT22;50274;45.640;11.756;2023-05-07T02:02:14;18.20;67.90
63017;DHT22;50274;45.640;11.756;2023-05-07T02:04:40;18.10;67.90
63017;DHT22;50274;45.640;11.756;2023-05-07T02:07:06;18.10;68.00
63017;DHT22;50274;45.640;11.756;2023-05-07T02:09:32;18.10;68.10
63017;DHT22;50274;45.640;11.756;2023-05-07T02:11:58;18.10;68.10
63017;DHT22;50274;45.640;11.756;2023-05-07T02:14:23;18.10;68.10
63017;DHT22;50274;45.640;11.756;2023-05-07T02:16:49;18.10;68.10
63017;DHT22;50274;45.640;11.756;2023-05-07T02:19:15;18.10;68.10
63017;DHT22;50274;45.640;11.756;2023-05-07T02:21:41;18.10;68.10
63017;DHT22;50274;45.640;11.756;2023-05-07T02:24:07;18.10;68.10
63017;DHT22;50274;45.640;11.756;2023-05-07T02:26:33;18.10;68.20
63017;DHT22;50274;45.640;11.756;2023-05-07T02:28:59;18.00;68.20
63017;DHT22;50274;45.640;11.756;2023-05-07T02:31:25;18.00;68.40
63017;DHT22;50274;45.640;11.756;2023-05-07T02:33:51;17.90;68.40
63017;DHT22;50274;45.640;11.756;2023-05-07T02:36:16;17.80;68.60
63017;DHT22;50274;45.640;11.756;2023-05-07T02:38:43;17.80;68.70
63017;DHT22;50274;45.640;11.756;2023-05-07T02:41:08;17.70;68.80
63017;DHT22;50274;45.640;11.756;2023-05-07T02:43:34;17.80;68.80
63017;DHT22;50274;45.640;11.756;2023-05-07T02:46:06;17.70;68.80
63017;DHT22;50274;45.640;11.756;2023-05-07T02:48:32;17.80;68.80
63017;DHT22;50274;45.640;11.756;2023-05-07T02:50:58;17.70;68.90
63017;DHT22;50274;45.640;11.756;2023-05-07T02:53:25;17.70;68.90
63017;DHT22;50274;45.640;11.756;2023-05-07T02:55:58;17.70;68.90
63017;DHT22;50274;45.640;11.756;2023-05-07T02:58:25;17.70;69.10
63017;DHT22;50274;45.640;11.756;2023-05-07T03:00:51;17.60;69.20
63017;DHT22;50274;45.640;11.756;2023-05-07T03:03:17;17.60;69.30
63017;DHT22;50274;45.640;11.756;2023-05-07T03:05:42;17.60;69.30
63017;DHT22;50274;45.640;11.756;2023-05-07T03:08:09;17.60;69.40
63017;DHT22;50274;45.640;11.756;2023-05-07T03:10:35;17.60;69.40
63017;DHT22;50274;45.640;11.756;2023-05-07T03:13:01;17.60;69.40
63017;DHT22;50274;45.640;11.756;2023-05-07T03:15:27;17.60;69.40
63017;DHT22;50274;45.640;11.756;2023-05-07T03:17:53;17.60;69.50
63017;DHT22;50274;45.640;11.756;2023-05-07T03:20:19;17.50;69.60
63017;DHT22;50274;45.640;11.756;2023-05-07T03:22:45;17.60;69.60
63017;DHT22;50274;45.640;11.756;2023-05-07T03:25:11;17.60;69.60
63017;DHT22;50274;45.640;11.756;2023-05-07T03:27:37;17.60;69.60
63017;DHT22;50274;45.640;11.756;2023-05-07T03:30:04;17.50;69.60
63017;DHT22;50274;45.640;11.756;2023-05-07T03:32:32;17.40;69.70
63017;DHT22;50274;45.640;11.756;2023-05-07T03:34:57;17.40;69.80
63017;DHT22;50274;45.640;11.756;2023-05-07T03:37:23;17.40;69.80
63017;DHT22;50274;45.640;11.756;2023-05-07T03:39:49;17.40;69.80
63017;DHT22;50274;45.640;11.756;2023-05-07T03:42:15;17.40;69.90
63017;DHT22;50274;45.640;11.756;2023-05-07T03:44:41;17.30;69.90
63017;DHT22;50274;45.640;11.756;2023-05-07T03:47:07;17.30;70.00
63017;DHT22;50274;45.640;11.756;2023-05-07T03:49:33;17.30;70.10
63017;DHT22;50274;45.640;11.756;2023-05-07T03:51:59;17.30;70.20
63017;DHT22;50274;45.640;11.756;2023-05-07T03:54:25;17.30;70.20
63017;DHT22;50274;45.640;11.756;2023-05-07T03:56:51;17.30;70.20
63017;DHT22;50274;45.640;11.756;2023-05-07T03:59:16;17.30;70.10
63017;DHT22;50274;45.640;11.756;2023-05-07T04:01:42;17.30;70.10
63017;DHT22;50274;45.640;11.756;2023-05-07T04:04:08;17.30;70.10
63017;DHT22;50274;45.640;11.756;2023-05-07T04:06:34;17.30;70.10
63017;DHT22;50274;45.640;11.756;2023-05-07T04:09:00;17.30;70.10
63017;DHT22;50274;45.640;11.756;2023-05-07T04:11:26;17.30;70.10
63017;DHT22;50274;45.640;11.756;2023-05-07T04:13:52;17.30;70.10
63017;DHT22;50274;45.640;11.756;2023-05-07T04:16:18;17.30;70.10
63017;DHT22;50274;45.640;11.756;2023-05-07T04:18:43;17.30;70.10
63017;DHT22;50274;45.640;11.756;2023-05-07T04:21:17;17.30;70.10
63017;DHT22;50274;45.640;11.756;2023-05-07T04:23:43;17.30;70.20
63017;DHT22;50274;45.640;11.756;2023-05-07T04:26:09;17.30;70.20
63017;DHT22;50274;45.640;11.756;2023-05-07T04:28:35;17.20;70.20
63017;DHT22;50274;45.640;11.756;2023-05-07T04:31:01;17.30;70.30
63017;DHT22;50274;45.640;11.756;2023-05-07T04:33:27;17.20;70.30
63017;DHT22;50274;45.640;11.756;2023-05-07T04:35:52;17.20;70.40
63017;DHT22;50274;45.640;11.756;2023-05-07T04:38:18;17.30;70.40
63017;DHT22;50274;45.640;11.756;2023-05-07T04:40:44;17.20;70.40
63017;DHT22;50274;45.640;11.756;2023-05-07T04:43:10;17.30;70.50
63017;DHT22;50274;45.640;11.756;2023-05-07T04:45:36;17.30;70.50
63017;DHT22;50274;45.640;11.756;2023-05-07T04:48:02;17.30;70.50
63017;DHT22;50274;45.640;11.756;2023-05-07T04:50:28;17.30;70.50
63017;DHT22;50274;45.640;11.756;2023-05-07T04:52:54;17.30;70.60
63017;DHT22;50274;45.640;11.756;2023-05-07T04:55:20;17.30;70.70
63017;DHT22;50274;45.640;11.756;2023-05-07T04:57:48;17.40;70.50
63017;DHT22;50274;45.640;11.756;2023-05-07T05:00:15;17.40;70.60
63017;DHT22;50274;45.640;11.756;2023-05-07T05:02:42;17.40;70.60
63017;DHT22;50274;45.640;11.756;2023-05-07T05:05:08;17.50;70.50
63017;DHT22;50274;45.640;11.756;2023-05-07T05:07:34;17.50;70.60
63017;DHT22;50274;45.640;11.756;2023-05-07T05:10:04;17.50;70.60
63017;DHT22;50274;45.640;11.756;2023-05-07T05:12:33;17.50;70.60
63017;DHT22;50274;45.640;11.756;2023-05-07T05:14:59;17.50;70.60
63017;DHT22;50274;45.640;11.756;2023-05-07T05:17:27;17.60;70.60
63017;DHT22;50274;45.640;11.756;2023-05-07T05:19:53;17.50;70.60
63017;DHT22;50274;45.640;11.756;2023-05-07T05:22:19;17.60;70.80
63017;DHT22;50274;45.640;11.756;2023-05-07T05:24:44;17.60;70.90
63017;DHT22;50274;45.640;11.756;2023-05-07T05:27:13;17.60;71.00
63017;DHT22;50274;45.640;11.756;2023-05-07T05:29:40;17.60;71.10
63017;DHT22;50274;45.640;11.756;2023-05-07T05:32:08;17.60;71.20
63017;DHT22;50274;45.640;11.756;2023-05-07T05:34:34;17.60;71.20
63017;DHT22;50274;45.640;11.756;2023-05-07T05:37:02;17.60;71.20
63017;DHT22;50274;45.640;11.756;2023-05-07T05:39:30;17.60;71.20
63017;DHT22;50274;45.640;11.756;2023-05-07T05:41:56;17.60;71.30
63017;DHT22;50274;45.640;11.756;2023-05-07T05:44:22;17.60;71.30
63017;DHT22;50274;45.640;11.756;2023-05-07T05:46:48;17.70;71.30
63017;DHT22;50274;45.640;11.756;2023-05-07T05:49:15;17.70;71.30
63017;DHT22;50274;45.640;11.756;2023-05-07T05:51:44;17.80;71.30
63017;DHT22;50274;45.640;11.756;2023-05-07T05:54:10;17.90;71.20
63017;DHT22;50274;45.640;11.756;2023-05-07T05:56:37;17.90;71.20
63017;DHT22;50274;45.640;11.756;2023-05-07T05:59:05;18.00;71.20
63017;DHT22;50274;45.640;11.756;2023-05-07T06:01:31;18.10;71.10
63017;DHT22;50274;45.640;11.756;2023-05-07T06:03:57;18.10;71.10
63017;DHT22;50274;45.640;11.756;2023-05-07T06:06:23;18.30;70.90
63017;DHT22;50274;45.640;11.756;2023-05-07T06:08:49;18.40;70.70
63017;DHT22;50274;45.640;11.756;2023-05-07T06:11:15;18.50;70.60
63017;DHT22;50274;45.640;11.756;2023-05-07T06:13:40;18.60;70.40
63017;DHT22;50274;45.640;11.756;2023-05-07T06:16:06;18.70;70.40
63017;DHT22;50274;45.640;11.756;2023-05-07T06:18:32;18.90;70.30
63017;DHT22;50274;45.640;11.756;2023-05-07T06:21:01;19.00;70.20
63017;DHT22;50274;45.640;11.756;2023-05-07T06:23:27;19.10;70.20
63017;DHT22;50274;45.640;11.756;2023-05-07T06:25:53;19.20;70.00
63017;DHT22;50274;45.640;11.756;2023-05-07T06:28:19;19.30;69.60
63017;DHT22;50274;45.640;11.756;2023-05-07T06:30:48;19.50;69.80
63017;DHT22;50274;45.640;11.756;2023-05-07T06:33:15;19.60;69.70
63017;DHT22;50274;45.640;11.756;2023-05-07T06:35:43;19.70;69.50
63017;DHT22;50274;45.640;11.756;2023-05-07T06:38:09;19.80;69.60
63017;DHT22;50274;45.640;11.756;2023-05-07T06:40:37;19.90;69.50
63017;DHT22;50274;45.640;11.756;2023-05-07T06:43:05;20.00;69.20
63017;DHT22;50274;45.640;11.756;2023-05-07T06:45:31;20.10;68.90
63017;DHT22;50274;45.640;11.756;2023-05-07T06:47:57;20.10;68.70
63017;DHT22;50274;45.640;11.756;2023-05-07T06:50:23;20.30;68.70
63017;DHT22;50274;45.640;11.756;2023-05-07T06:52:49;20.40;68.50
63017;DHT22;50274;45.640;11.756;2023-05-07T06:55:15;20.50;68.30
63017;DHT22;50274;45.640;11.756;2023-05-07T06:57:41;20.60;67.90
63017;DHT22;50274;45.640;11.756;2023-05-07T07:00:07;20.70;67.40
63017;DHT22;50274;45.640;11.756;2023-05-07T07:02:36;20.70;67.20
63017;DHT22;50274;45.640;11.756;2023-05-07T07:05:01;20.80;67.00
63017;DHT22;50274;45.640;11.756;2023-05-07T07:07:27;20.90;66.80
63017;DHT22;50274;45.640;11.756;2023-05-07T07:09:56;21.10;66.50
63017;DHT22;50274;45.640;11.756;2023-05-07T07:12:22;21.10;66.20
63017;DHT22;50274;45.640;11.756;2023-05-07T07:14:50;21.30;65.20
63017;DHT22;50274;45.640;11.756;2023-05-07T07:17:16;21.40;64.30
63017;DHT22;50274;45.640;11.756;2023-05-07T07:19:42;21.50;63.50
63017;DHT22;50274;45.640;11.756;2023-05-07T07:22:10;21.60;62.40
63017;DHT22;50274;45.640;11.756;2023-05-07T07:24:35;21.70;61.50
63017;DHT22;50274;45.640;11.756;2023-05-07T07:27:01;21.80;61.10
63017;DHT22;50274;45.640;11.756;2023-05-07T07:29:27;21.90;60.80
63017;DHT22;50274;45.640;11.756;2023-05-07T07:31:53;22.10;60.10
63017;DHT22;50274;45.640;11.756;2023-05-07T07:34:19;22.10;58.80
63017;DHT22;50274;45.640;11.756;2023-05-07T07:36:45;22.20;58.70
63017;DHT22;50274;45.640;11.756;2023-05-07T07:39:12;22.20;58.70
63017;DHT22;50274;45.640;11.756;2023-05-07T07:41:41;22.40;58.50
63017;DHT22;50274;45.640;11.756;2023-05-07T07:44:06;22.50;57.70
63017;DHT22;50274;45.640;11.756;2023-05-07T07:46:34;22.60;56.60
63017;DHT22;50274;45.640;11.756;2023-05-07T07:49:00;22.70;56.70
63017;DHT22;50274;45.640;11.756;2023-05-07T07:51:26;22.90;56.70
63017;DHT22;50274;45.640;11.756;2023-05-07T07:53:52;23.00;55.70
63017;DHT22;50274;45.640;11.756;2023-05-07T07:56:20;23.20;56.00
63017;DHT22;50274;45.640;11.756;2023-05-07T07:58:46;23.30;55.50
63017;DHT22;50274;45.640;11.756;2023-05-07T08:01:12;23.40;55.10
63017;DHT22;50274;45.640;11.756;2023-05-07T08:03:41;23.40;54.20
63017;DHT22;50274;45.640;11.756;2023-05-07T08:06:07;23.30;53.50
63017;DHT22;50274;45.640;11.756;2023-05-07T08:08:33;23.30;53.60
63017;DHT22;50274;45.640;11.756;2023-05-07T08:10:59;23.30;53.40
63017;DHT22;50274;45.640;11.756;2023-05-07T08:13:25;23.20;53.50
63017;DHT22;50274;45.640;11.756;2023-05-07T08:15:53;23.20;53.40
63017;DHT22;50274;45.640;11.756;2023-05-07T08:18:19;23.20;53.60
63017;DHT22;50274;45.640;11.756;2023-05-07T08:20:45;23.10;53.70
63017;DHT22;50274;45.640;11.756;2023-05-07T08:23:11;23.10;53.60
63017;DHT22;50274;45.640;11.756;2023-05-07T08:25:42;23.10;52.50
63017;DHT22;50274;45.640;11.756;2023-05-07T08:28:11;23.10;52.70
63017;DHT22;50274;45.640;11.756;2023-05-07T08:30:36;23.00;52.90
63017;DHT22;50274;45.640;11.756;2023-05-07T08:33:02;23.00;52.40
63017;DHT22;50274;45.640;11.756;2023-05-07T08:35:28;23.00;52.60
63017;DHT22;50274;45.640;11.756;2023-05-07T08:37:54;22.90;52.50
63017;DHT22;50274;45.640;11.756;2023-05-07T08:40:22;22.90;52.70
63017;DHT22;50274;45.640;11.756;2023-05-07T08:42:53;23.00;53.20
63017;DHT22;50274;45.640;11.756;2023-05-07T08:45:19;23.00;53.40
63017;DHT22;50274;45.640;11.756;2023-05-07T08:48:01;23.00;52.70
63017;DHT22;50274;45.640;11.756;2023-05-07T08:50:29;23.00;52.20
63017;DHT22;50274;45.640;11.756;2023-05-07T08:53:00;23.00;52.00
63017;DHT22;50274;45.640;11.756;2023-05-07T08:55:30;23.00;52.10
63017;DHT22;50274;45.640;11.756;2023-05-07T08:57:56;23.10;51.40
63017;DHT22;50274;45.640;11.756;2023-05-07T09:00:22;23.10;50.60
63017;DHT22;50274;45.640;11.756;2023-05-07T09:02:48;23.10;50.50
63017;DHT22;50274;45.640;11.756;2023-05-07T09:05:14;23.20;50.80
63017;DHT22;50274;45.640;11.756;2023-05-07T09:07:43;23.30;50.90
63017;DHT22;50274;45.640;11.756;2023-05-07T09:10:12;23.30;50.70
63017;DHT22;50274;45.640;11.756;2023-05-07T09:12:39;23.40;50.40
63017;DHT22;50274;45.640;11.756;2023-05-07T09:15:05;23.50;50.50
63017;DHT22;50274;45.640;11.756;2023-05-07T09:17:36;23.50;49.80
63017;DHT22;50274;45.640;11.756;2023-05-07T09:20:07;23.50;49.50
63017;DHT22;50274;45.640;11.756;2023-05-07T09:22:38;23.50;49.30
63017;DHT22;50274;45.640;11.756;2023-05-07T09:25:12;23.60;49.40
63017;DHT22;50274;45.640;11.756;2023-05-07T09:27:45;23.60;49.50
63017;DHT22;50274;45.640;11.756;2023-05-07T09:30:15;23.70;49.50
63017;DHT22;50274;45.640;11.756;2023-05-07T09:32:51;23.80;49.40
63017;DHT22;50274;45.640;11.756;2023-05-07T09:35:20;23.80;49.20
63017;DHT22;50274;45.640;11.756;2023-05-07T09:37:51;23.90;49.20
63017;DHT22;50274;45.640;11.756;2023-05-07T09:40:22;24.00;49.50
63017;DHT22;50274;45.640;11.756;2023-05-07T09:42:51;24.10;49.00
63017;DHT22;50274;45.640;11.756;2023-05-07T09:45:25;24.10;48.90
63017;DHT22;50274;45.640;11.756;2023-05-07T09:47:55;24.10;48.30
63017;DHT22;50274;45.640;11.756;2023-05-07T09:50:28;24.10;48.70
63017;DHT22;50274;45.640;11.756;2023-05-07T09:52:55;24.10;48.80
63017;DHT22;50274;45.640;11.756;2023-05-07T09:55:23;24.10;48.60
63017;DHT22;50274;45.640;11.756;2023-05-07T09:57:53;24.20;48.50
63017;DHT22;50274;45.640;11.756;2023-05-07T10:00:20;24.30;48.40
63017;DHT22;50274;45.640;11.756;2023-05-07T10:02:50;24.30;48.00
63017;DHT22;50274;45.640;11.756;2023-05-07T10:05:21;24.40;48.00
63017;DHT22;50274;45.640;11.756;2023-05-07T10:07:48;24.60;47.50
63017;DHT22;50274;45.640;11.756;2023-05-07T10:10:14;24.70;47.30
63017;DHT22;50274;45.640;11.756;2023-05-07T10:12:41;24.80;47.40
63017;DHT22;50274;45.640;11.756;2023-05-07T10:15:10;24.90;47.60
63017;DHT22;50274;45.640;11.756;2023-05-07T10:17:38;25.10;47.50
63017;DHT22;50274;45.640;11.756;2023-05-07T10:20:08;25.20;46.90
63017;DHT22;50274;45.640;11.756;2023-05-07T10:22:53;25.20;46.90
63017;DHT22;50274;45.640;11.756;2023-05-07T10:25:25;25.40;47.50
63017;DHT22;50274;45.640;11.756;2023-05-07T10:27:52;25.60;47.70
63017;DHT22;50274;45.640;11.756;2023-05-07T10:33:25;25.80;47.70
63017;DHT22;50274;45.640;11.756;2023-05-07T10:35:57;25.90;47.80
63017;DHT22;50274;45.640;11.756;2023-05-07T10:38:24;26.00;47.70
63017;DHT22;50274;45.640;11.756;2023-05-07T10:40:51;26.20;47.50
63017;DHT22;50274;45.640;11.756;2023-05-07T10:43:17;26.30;46.90
63017;DHT22;50274;45.640;11.756;2023-05-07T10:46:17;26.40;45.20
63017;DHT22;50274;45.640;11.756;2023-05-07T10:52:20;26.40;46.30
63017;DHT22;50274;45.640;11.756;2023-05-07T10:57:42;26.40;46.60
63017;DHT22;50274;45.640;11.756;2023-05-07T11:03:07;26.40;46.00
63017;DHT22;50274;45.640;11.756;2023-05-07T11:05:42;26.50;46.00
63017;DHT22;50274;45.640;11.756;2023-05-07T11:08:08;26.40;46.10
63017;DHT22;50274;45.640;11.756;2023-05-07T11:10:55;26.30;46.00
63017;DHT22;50274;45.640;11.756;2023-05-07T11:13:49;26.20;46.00
63017;DHT22;50274;45.640;11.756;2023-05-07T11:16:23;26.10;45.60
63017;DHT22;50274;45.640;11.756;2023-05-07T11:18:51;26.00;46.80
63017;DHT22;50274;45.640;11.756;2023-05-07T11:21:39;26.00;47.20
63017;DHT22;50274;45.640;11.756;2023-05-07T11:24:07;25.90;47.60
63017;DHT22;50274;45.640;11.756;2023-05-07T11:26:46;25.90;47.70
63017;DHT22;50274;45.640;11.756;2023-05-07T11:29:14;26.00;49.10
63017;DHT22;50274;45.640;11.756;2023-05-07T11:31:43;26.00;48.50
63017;DHT22;50274;45.640;11.756;2023-05-07T11:34:09;26.10;48.40
63017;DHT22;50274;45.640;11.756;2023-05-07T11:36:36;26.10;48.40
63017;DHT22;50274;45.640;11.756;2023-05-07T11:39:26;26.10;49.00
63017;DHT22;50274;45.640;11.756;2023-05-07T11:41:52;26.30;49.00
63017;DHT22;50274;45.640;11.756;2023-05-07T11:44:18;26.30;48.80
63017;DHT22;50274;45.640;11.756;2023-05-07T11:46:44;26.40;48.90
63017;DHT22;50274;45.640;11.756;2023-05-07T11:49:10;26.50;49.00
63017;DHT22;50274;45.640;11.756;2023-05-07T11:51:36;26.70;48.70
63017;DHT22;50274;45.640;11.756;2023-05-07T11:54:04;27.10;48.30
63017;DHT22;50274;45.640;11.756;2023-05-07T11:56:35;27.40;47.80
63017;DHT22;50274;45.640;11.756;2023-05-07T11:59:01;27.70;47.00
63017;DHT22;50274;45.640;11.756;2023-05-07T12:01:27;27.90;46.70
63017;DHT22;50274;45.640;11.756;2023-05-07T12:03:53;28.00;46.80
63017;DHT22;50274;45.640;11.756;2023-05-07T12:06:21;28.20;46.40
63017;DHT22;50274;45.640;11.756;2023-05-07T12:08:47;28.40;45.60
63017;DHT22;50274;45.640;11.756;2023-05-07T12:11:24;28.60;45.40
63017;DHT22;50274;45.640;11.756;2023-05-07T12:13:50;28.70;45.30
63017;DHT22;50274;45.640;11.756;2023-05-07T12:16:17;28.90;45.10
63017;DHT22;50274;45.640;11.756;2023-05-07T12:18:45;28.90;44.70
63017;DHT22;50274;45.640;11.756;2023-05-07T12:21:11;29.00;44.30
63017;DHT22;50274;45.640;11.756;2023-05-07T12:23:39;29.20;44.50
63017;DHT22;50274;45.640;11.756;2023-05-07T12:26:05;29.40;44.00
63017;DHT22;50274;45.640;11.756;2023-05-07T12:28:36;29.50;43.50
63017;DHT22;50274;45.640;11.756;2023-05-07T12:31:03;29.60;43.00
63017;DHT22;50274;45.640;11.756;2023-05-07T12:33:29;29.60;42.70
63017;DHT22;50274;45.640;11.756;2023-05-07T12:35:58;29.70;42.50
63017;DHT22;50274;45.640;11.756;2023-05-07T12:38:37;29.70;42.80
63017;DHT22;50274;45.640;11.756;2023-05-07T12:41:03;29.70;43.10
63017;DHT22;50274;45.640;11.756;2023-05-07T12:43:31;29.70;42.70
63017;DHT22;50274;45.640;11.756;2023-05-07T12:46:00;29.80;43.10
63017;DHT22;50274;45.640;11.756;2023-05-07T12:48:27;29.90;43.00
63017;DHT22;50274;45.640;11.756;2023-05-07T12:51:02;30.00;43.10
63017;DHT22;50274;45.640;11.756;2023-05-07T12:53:29;29.90;42.70
63017;DHT22;50274;45.640;11.756;2023-05-07T12:55:57;29.90;42.20
63017;DHT22;50274;45.640;11.756;2023-05-07T12:58:28;29.90;42.00
63017;DHT22;50274;45.640;11.756;2023-05-07T13:00:55;29.90;41.70
63017;DHT22;50274;45.640;11.756;2023-05-07T13:03:37;29.90;41.60
63017;DHT22;50274;45.640;11.756;2023-05-07T13:06:09;30.00;41.90
63017;DHT22;50274;45.640;11.756;2023-05-07T13:08:41;29.90;40.80
63017;DHT22;50274;45.640;11.756;2023-05-07T13:11:11;29.90;39.70
63017;DHT22;50274;45.640;11.756;2023-05-07T13:13:40;29.90;40.70
63017;DHT22;50274;45.640;11.756;2023-05-07T13:16:08;29.90;40.80
63017;DHT22;50274;45.640;11.756;2023-05-07T13:18:38;29.80;41.00
63017;DHT22;50274;45.640;11.756;2023-05-07T13:21:06;29.70;41.20
63017;DHT22;50274;45.640;11.756;2023-05-07T13:23:32;29.70;41.00
63017;DHT22;50274;45.640;11.756;2023-05-07T13:26:03;29.60;41.00
63017;DHT22;50274;45.640;11.756;2023-05-07T13:28:31;29.60;41.20
63017;DHT22;50274;45.640;11.756;2023-05-07T13:30:57;29.60;40.60
63017;DHT22;50274;45.640;11.756;2023-05-07T13:33:23;29.50;40.60
63017;DHT22;50274;45.640;11.756;2023-05-07T13:35:51;29.40;40.60
63017;DHT22;50274;45.640;11.756;2023-05-07T13:38:18;29.40;40.80
63017;DHT22;50274;45.640;11.756;2023-05-07T13:40:44;29.60;41.00
63017;DHT22;50274;45.640;11.756;2023-05-07T13:43:10;29.60;41.40
63017;DHT22;50274;45.640;11.756;2023-05-07T13:45:36;29.40;41.00
63017;DHT22;50274;45.640;11.756;2023-05-07T13:48:01;29.40;40.80
63017;DHT22;50274;45.640;11.756;2023-05-07T13:50:27;29.20;41.30
63017;DHT22;50274;45.640;11.756;2023-05-07T13:52:55;29.20;41.60
63017;DHT22;50274;45.640;11.756;2023-05-07T13:55:23;29.20;41.50
63017;DHT22;50274;45.640;11.756;2023-05-07T13:57:57;29.20;41.80
63017;DHT22;50274;45.640;11.756;2023-05-07T14:00:24;29.10;42.40
63017;DHT22;50274;45.640;11.756;2023-05-07T14:02:53;29.10;42.10
63017;DHT22;50274;45.640;11.756;2023-05-07T14:05:19;29.10;42.40
63017;DHT22;50274;45.640;11.756;2023-05-07T14:07:47;29.10;43.10
63017;DHT22;50274;45.640;11.756;2023-05-07T14:10:14;29.10;42.40
63017;DHT22;50274;45.640;11.756;2023-05-07T14:12:43;29.10;43.00
63017;DHT22;50274;45.640;11.756;2023-05-07T14:15:12;29.10;42.80
63017;DHT22;50274;45.640;11.756;2023-05-07T14:17:43;29.20;43.00
63017;DHT22;50274;45.640;11.756;2023-05-07T14:20:12;29.20;42.60
63017;DHT22;50274;45.640;11.756;2023-05-07T14:22:38;29.30;42.80
63017;DHT22;50274;45.640;11.756;2023-05-07T14:25:07;29.30;43.10
63017;DHT22;50274;45.640;11.756;2023-05-07T14:27:33;29.30;42.70
63017;DHT22;50274;45.640;11.756;2023-05-07T14:29:59;29.20;42.70
63017;DHT22;50274;45.640;11.756;2023-05-07T14:32:27;29.20;43.10
63017;DHT22;50274;45.640;11.756;2023-05-07T14:34:53;29.10;43.20
63017;DHT22;50274;45.640;11.756;2023-05-07T14:37:18;29.00;43.30
63017;DHT22;50274;45.640;11.756;2023-05-07T14:39:45;28.90;43.30
63017;DHT22;50274;45.640;11.756;2023-05-07T14:42:12;28.80;43.00
63017;DHT22;50274;45.640;11.756;2023-05-07T14:44:40;28.70;42.80
63017;DHT22;50274;45.640;11.756;2023-05-07T14:47:07;28.60;43.00
63017;DHT22;50274;45.640;11.756;2023-05-07T14:49:33;28.60;43.60
63017;DHT22;50274;45.640;11.756;2023-05-07T14:51:59;28.60;43.90
63017;DHT22;50274;45.640;11.756;2023-05-07T14:54:28;28.60;44.00
63017;DHT22;50274;45.640;11.756;2023-05-07T14:56:55;28.60;44.30
63017;DHT22;50274;45.640;11.756;2023-05-07T14:59:23;28.60;44.50
63017;DHT22;50274;45.640;11.756;2023-05-07T15:02:13;28.60;44.80
63017;DHT22;50274;45.640;11.756;2023-05-07T15:04:39;28.40;44.20
63017;DHT22;50274;45.640;11.756;2023-05-07T15:07:12;28.30;44.30
63017;DHT22;50274;45.640;11.756;2023-05-07T15:09:44;28.20;44.50
63017;DHT22;50274;45.640;11.756;2023-05-07T15:12:12;28.10;44.80
63017;DHT22;50274;45.640;11.756;2023-05-07T15:14:39;28.00;45.00
63017;DHT22;50274;45.640;11.756;2023-05-07T15:17:11;27.80;45.10
63017;DHT22;50274;45.640;11.756;2023-05-07T15:19:40;27.70;44.80
63017;DHT22;50274;45.640;11.756;2023-05-07T15:22:06;27.70;44.70
63017;DHT22;50274;45.640;11.756;2023-05-07T15:24:34;27.70;44.90
63017;DHT22;50274;45.640;11.756;2023-05-07T15:27:00;27.70;45.20
63017;DHT22;50274;45.640;11.756;2023-05-07T15:29:28;27.70;45.30
63017;DHT22;50274;45.640;11.756;2023-05-07T15:31:54;27.70;45.00